This is the latest recevied weather packets stored in our database for station/object E22ZMG-10. If no packets are shown the sender has not sent any weather packets the latest 10 day(s).
| Time | Temp. | Humidity | Pressure | Rain* | Wind** | Luminosity | Snow |
|---|---|---|---|---|---|---|---|
| 1777875606 | 36.11° C | 32% | 974 hPa | - | - | 0 W/m² | - |
| 1777874982 | 36.11° C | 33% | 974 hPa | - | - | 0 W/m² | - |
| 1777874358 | 36.67° C | 33% | 974 hPa | - | - | 0 W/m² | - |
| 1777873734 | 35.56° C | 36% | 975 hPa | - | - | 0 W/m² | - |
| 1777873110 | 36.11° C | 34% | 975 hPa | - | - | 0 W/m² | - |
| 1777872485 | 36.11° C | 36% | 975 hPa | - | - | 0 W/m² | - |
| 1777871861 | 36.11° C | 35% | 975 hPa | - | - | 0 W/m² | - |
| 1777871236 | 35.56° C | 36% | 975 hPa | - | - | 0 W/m² | - |
| 1777870612 | 36.11° C | 34% | 975 hPa | - | - | 0 W/m² | - |
| 1777869988 | 36.67° C | 34% | 976 hPa | - | - | 0 W/m² | - |
| 1777869364 | 35.56° C | 37% | 976 hPa | - | - | 0 W/m² | - |
| 1777868739 | 36.11° C | 35% | 976 hPa | - | - | 0 W/m² | - |
| 1777868115 | 35.56° C | 37% | 976 hPa | - | - | 0 W/m² | - |
| 1777867491 | 35.56° C | 36% | 976 hPa | - | - | 0 W/m² | - |
| 1777866867 | 35.56° C | 38% | 976 hPa | - | - | 0 W/m² | - |
| 1777866242 | 35.56° C | 37% | 976 hPa | - | - | 0 W/m² | - |
| 1777865618 | 35.56° C | 37% | 976 hPa | - | - | 0 W/m² | - |
| 1777864994 | 35° C | 39% | 976 hPa | - | - | 0 W/m² | - |
| 1777864370 | 35° C | 39% | 976 hPa | - | - | 0 W/m² | - |
| 1777863746 | 35° C | 38% | 976 hPa | - | - | 0 W/m² | - |
| 1777863121 | 35° C | 40% | 977 hPa | - | - | 0 W/m² | - |
| 1777862497 | 35° C | 39% | 977 hPa | - | - | 0 W/m² | - |
| 1777861873 | 35° C | 40% | 977 hPa | - | - | 0 W/m² | - |
| 1777861249 | 35° C | 40% | 977 hPa | - | - | 0 W/m² | - |
| 1777860625 | 35° C | 41% | 977 hPa | - | - | 0 W/m² | - |
* Rain since midnight (hover to see other rain measurements)
** Current wind speed in m/s (hover to see current wind gust speed)